Main page
METAR-TAF:

METAR-TAF

Airports :

Guernsey Airport

Guernsey,

latitude: 49-26N, longitude: 002-36W, elevation: 102 m

Current weather observation

The report was made 13 minutes ago, at 22:20 UTC
Wind 6 kt from the North/Northwest
Temperature 5°C
Humidity 65%
Pressure 1027 hPa
Visibility 10 km or more
Few clouds at a height of 3200 ft

METAR: EGJB 112220Z 34006KT 9999 FEW032 05/M01 Q1027

Time: 23:33 (22:33 UTC)

Forecast

The report was made 2 hours and 39 minutes ago, at 19:54 UTC
Forecast valid from 11 at 21 UTC to 12 at 06 UTC
Wind 7 kt from the Northwest
Visibility 10 km or more
Few clouds at a height of 3000 ft

TAF: EGJB 111954Z 1121/1206 32007KT 9999 FEW030

Weather observations and forecasts of more than 4000 airports (METAR and TAF reports).

The available stations are represented by yellow and red dots on the map.

Hover mouse over dot to see the name of the station.

Then click to see weather observations and forecasts.

To change the map : click on the green buttons with a black cross to zoom in, on the green button with a dash to zoom out, or on the green arrows for adjacent maps.


METAR-TAF: